createdAt,value
2023-05-20T00:03:21.221Z,26.20
2023-05-20T00:07:33.793Z,21.85
2023-05-20T00:11:46.853Z,23.50
2023-05-20T00:15:59.501Z,21.17
2023-05-20T00:20:12.267Z,23.17
2023-05-20T00:24:25.612Z,20.65
2023-05-20T00:28:38.031Z,17.70
2023-05-20T00:32:50.443Z,20.80
2023-05-20T00:37:02.928Z,22.23
2023-05-20T00:41:15.352Z,20.77
2023-05-20T00:45:27.903Z,19.98
2023-05-20T00:49:40.424Z,28.90
2023-05-20T00:53:52.962Z,19.42
2023-05-20T00:58:06.593Z,21.20
2023-05-20T01:02:19.954Z,24.52
2023-05-20T01:06:34.108Z,20.60
2023-05-20T01:10:50.145Z,19.70
2023-05-20T01:15:08.163Z,21.42
2023-05-20T01:19:46.699Z,16.60
2023-05-20T01:23:59.155Z,16.15
2023-05-20T01:28:18.246Z,16.25
2023-05-20T01:32:38.394Z,11.68
2023-05-20T01:36:55.114Z,14.80
2023-05-20T01:41:07.847Z,11.20
2023-05-20T01:45:20.748Z,10.80
2023-05-20T01:49:36.085Z,13.00
2023-05-20T01:53:48.410Z,15.73
2023-05-20T01:58:00.743Z,16.67
2023-05-20T02:02:13.488Z,19.10
2023-05-20T02:06:27.735Z,17.60
2023-05-20T02:10:40.686Z,18.40
2023-05-20T02:14:53.161Z,14.10
2023-05-20T02:19:05.621Z,14.07
2023-05-20T02:23:18.113Z,16.98
2023-05-20T02:27:30.550Z,17.15
2023-05-20T02:31:44.048Z,13.57
2023-05-20T02:35:56.496Z,12.98
2023-05-20T02:40:09.607Z,10.73
2023-05-20T02:44:24.405Z,14.73
2023-05-20T02:48:36.773Z,12.13
2023-05-20T02:52:50.184Z,16.30
2023-05-20T02:57:03.672Z,11.63
2023-05-20T03:01:16.233Z,11.13
2023-05-20T03:05:28.620Z,11.55
2023-05-20T03:09:41.878Z,12.75
2023-05-20T03:13:54.489Z,11.63
2023-05-20T03:18:08.738Z,12.00
2023-05-20T03:22:22.121Z,12.80
2023-05-20T03:26:37.863Z,9.38
2023-05-20T03:30:50.454Z,10.38
2023-05-20T03:35:03.520Z,11.65
2023-05-20T03:39:16.263Z,13.18
2023-05-20T03:43:29.872Z,12.40
2023-05-20T03:47:42.585Z,11.45
2023-05-20T03:51:55.101Z,19.30
2023-05-20T03:56:07.669Z,12.27
2023-05-20T04:00:21.988Z,13.07
2023-05-20T04:04:35.002Z,16.33
2023-05-20T04:08:47.526Z,16.30
2023-05-20T04:13:00.433Z,14.70
2023-05-20T04:17:13.032Z,12.20
2023-05-20T04:21:25.661Z,12.25
2023-05-20T04:25:39.195Z,9.98
2023-05-20T04:29:53.348Z,9.95
2023-05-20T04:34:06.134Z,15.02
2023-05-20T04:38:18.745Z,13.27
2023-05-20T04:42:31.209Z,14.98
2023-05-20T04:46:45.027Z,16.48
2023-05-20T04:50:57.429Z,15.27
2023-05-20T04:55:10.849Z,19.63
2023-05-20T04:59:23.515Z,20.17
2023-05-20T05:03:36.835Z,20.35
2023-05-20T05:07:49.988Z,19.08
2023-05-20T05:12:03.090Z,25.15
2023-05-20T05:16:15.550Z,22.95
2023-05-20T05:20:28.421Z,22.73
2023-05-20T05:24:41.064Z,25.33
2023-05-20T05:28:55.309Z,26.00
2023-05-20T05:33:08.403Z,18.75
2023-05-20T05:37:21.504Z,18.60
2023-05-20T05:41:34.680Z,20.08
2023-05-20T05:45:47.564Z,17.50
2023-05-20T05:50:02.666Z,21.67
2023-05-20T05:54:23.354Z,29.02
2023-05-20T05:58:36.712Z,20.98
2023-05-20T06:02:51.444Z,20.92
2023-05-20T06:07:23.946Z,25.38
2023-05-20T06:11:37.550Z,18.35
2023-05-20T06:15:51.199Z,17.75
2023-05-20T06:20:04.155Z,16.42
2023-05-20T06:24:16.689Z,18.80
2023-05-20T06:28:31.138Z,25.65
2023-05-20T06:32:43.667Z,19.27
2023-05-20T06:36:56.630Z,11.45
2023-05-20T06:41:09.148Z,16.10
2023-05-20T06:45:22.262Z,9.35
2023-05-20T06:49:39.060Z,6.13
2023-05-20T06:53:51.669Z,9.07
2023-05-20T06:58:04.356Z,16.92
2023-05-20T07:02:17.620Z,19.10
2023-05-20T07:06:31.868Z,21.30
2023-05-20T07:10:46.136Z,16.27
2023-05-20T07:15:01.742Z,10.70
2023-05-20T07:19:14.408Z,12.43
2023-05-20T07:23:27.373Z,18.20
2023-05-20T07:27:41.235Z,14.60
2023-05-20T07:31:54.031Z,10.05
2023-05-20T07:36:08.011Z,12.02
2023-05-20T07:40:24.317Z,15.38
2023-05-20T07:44:36.982Z,11.43
2023-05-20T07:48:50.471Z,6.95
2023-05-20T07:53:03.053Z,9.32
2023-05-20T07:57:17.172Z,6.95
2023-05-20T08:01:30.366Z,7.97
2023-05-20T08:05:42.959Z,7.32
2023-05-20T08:09:55.910Z,10.75
2023-05-20T08:14:08.646Z,13.15
2023-05-20T08:18:27.813Z,7.07
2023-05-20T08:22:41.109Z,8.15
2023-05-20T08:26:53.652Z,6.40
2023-05-20T08:31:09.022Z,9.50
2023-05-20T08:35:24.017Z,9.48
2023-05-20T08:39:37.584Z,13.55
2023-05-20T08:43:52.590Z,10.30
2023-05-20T08:48:05.796Z,7.03
2023-05-20T08:52:22.878Z,8.63
2023-05-20T08:56:37.176Z,22.45
2023-05-20T09:00:50.154Z,16.92
2023-05-20T09:05:03.321Z,12.77
2023-05-20T09:09:16.241Z,12.55
2023-05-20T09:13:31.134Z,8.88
2023-05-20T09:17:43.721Z,8.32
2023-05-20T09:21:56.544Z,12.15
2023-05-20T09:26:09.133Z,10.13
2023-05-20T09:30:22.572Z,11.05
2023-05-20T09:34:36.572Z,11.50
2023-05-20T09:38:53.821Z,9.23
2023-05-20T09:43:08.192Z,6.32
2023-05-20T09:47:21.125Z,9.40
2023-05-20T09:51:34.719Z,10.63
2023-05-20T09:55:47.422Z,17.13
2023-05-20T09:59:59.801Z,7.55
2023-05-20T10:04:14.318Z,19.17
2023-05-20T10:08:43.159Z,8.63
2023-05-20T10:13:10.397Z,11.00
2023-05-20T10:17:25.451Z,12.18
2023-05-20T10:21:38.421Z,10.45
2023-05-20T10:25:55.380Z,12.85
2023-05-20T10:30:17.000Z,10.00
2023-05-20T10:34:29.563Z,9.45
2023-05-20T10:38:52.768Z,11.38
2023-05-20T10:43:13.003Z,9.02
2023-05-20T10:47:26.486Z,14.98
2023-05-20T10:51:39.670Z,12.43
2023-05-20T10:55:53.726Z,14.90
2023-05-20T11:00:07.000Z,11.82
2023-05-20T11:04:19.923Z,14.13
2023-05-20T11:08:32.534Z,12.05
2023-05-20T11:12:45.161Z,10.55
2023-05-20T11:16:59.751Z,8.90
2023-05-20T11:21:12.326Z,7.78
2023-05-20T11:25:24.734Z,8.77
2023-05-20T11:29:38.273Z,6.40
2023-05-20T11:33:52.482Z,9.70
2023-05-20T11:38:09.473Z,6.40
2023-05-20T11:42:22.216Z,8.30
2023-05-20T11:46:44.744Z,8.27
2023-05-20T11:50:59.947Z,12.15
2023-05-20T11:55:16.172Z,19.85
2023-05-20T11:59:28.858Z,8.10
2023-05-20T12:03:41.413Z,10.85
2023-05-20T12:07:56.032Z,8.00
2023-05-20T12:12:08.982Z,17.17
2023-05-20T12:16:21.375Z,10.85
2023-05-20T12:20:37.456Z,8.32
2023-05-20T12:24:51.835Z,12.80
2023-05-20T12:29:05.426Z,6.95
2023-05-20T12:33:17.835Z,7.90
2023-05-20T12:37:30.609Z,11.93
2023-05-20T12:41:43.125Z,8.00
2023-05-20T12:45:56.309Z,12.02
2023-05-20T12:50:09.169Z,9.32
2023-05-20T12:54:21.755Z,14.63
2023-05-20T12:58:34.268Z,7.72
2023-05-20T13:02:46.731Z,15.23
2023-05-20T13:06:59.527Z,8.52
2023-05-20T13:11:12.114Z,9.52
2023-05-20T13:15:24.505Z,8.95
2023-05-20T13:19:38.346Z,9.10
2023-05-20T13:23:50.834Z,13.25
2023-05-20T13:28:06.253Z,13.27
2023-05-20T13:32:18.853Z,8.00
2023-05-20T13:36:31.358Z,12.90
2023-05-20T13:40:43.843Z,11.32
2023-05-20T13:44:56.567Z,9.00
2023-05-20T13:49:09.065Z,11.82
2023-05-20T13:53:21.670Z,9.55
2023-05-20T13:57:34.290Z,10.30
2023-05-20T14:01:46.883Z,5.85
2023-05-20T14:06:00.167Z,12.55
2023-05-20T14:10:12.685Z,8.23
2023-05-20T14:14:25.537Z,9.63
2023-05-20T14:18:38.041Z,8.60
2023-05-20T14:22:50.574Z,15.13
2023-05-20T14:27:03.046Z,9.80
2023-05-20T14:31:15.621Z,12.20
2023-05-20T14:35:28.079Z,8.40
2023-05-20T14:39:40.557Z,10.32
2023-05-20T14:43:53.016Z,8.55
2023-05-20T14:48:05.981Z,7.40
2023-05-20T14:52:21.891Z,7.65
2023-05-20T14:56:34.640Z,7.43
2023-05-20T15:00:47.143Z,9.60
2023-05-20T15:04:59.576Z,11.02
2023-05-20T15:09:12.153Z,8.02
2023-05-20T15:13:24.611Z,11.77
2023-05-20T15:17:37.210Z,10.55
2023-05-20T15:21:52.004Z,12.07
2023-05-20T15:26:05.442Z,10.00
2023-05-20T15:30:18.219Z,9.95
2023-05-20T15:34:30.822Z,11.13
2023-05-20T15:38:44.554Z,10.95
2023-05-20T15:42:57.557Z,16.67
2023-05-20T15:47:10.094Z,6.20
2023-05-20T15:51:23.479Z,10.70
2023-05-20T15:55:36.323Z,12.52
2023-05-20T15:59:48.799Z,12.57
2023-05-20T16:04:01.287Z,13.00
2023-05-20T16:08:13.922Z,10.82
2023-05-20T16:12:26.786Z,7.55
2023-05-20T16:16:39.783Z,11.45
2023-05-20T16:20:52.428Z,8.57
2023-05-20T16:25:05.210Z,10.38
2023-05-20T16:29:17.762Z,12.95
2023-05-20T16:33:30.345Z,14.85
2023-05-20T16:37:43.371Z,12.65
2023-05-20T16:41:55.972Z,18.65
2023-05-20T16:46:08.554Z,19.83
2023-05-20T16:50:23.482Z,14.35
2023-05-20T16:54:38.570Z,17.08
2023-05-20T16:58:53.004Z,16.23
2023-05-20T17:03:05.989Z,16.23
2023-05-20T17:07:18.620Z,17.17
2023-05-20T17:11:31.377Z,17.92
2023-05-20T17:15:43.869Z,14.70
2023-05-20T17:19:56.597Z,25.38
2023-05-20T17:24:09.184Z,15.32
2023-05-20T17:28:21.790Z,14.20
2023-05-20T17:32:34.236Z,15.88
2023-05-20T17:36:46.845Z,19.92
2023-05-20T17:40:59.320Z,22.30
2023-05-20T17:45:12.082Z,27.33
2023-05-20T17:49:24.644Z,24.25
2023-05-20T17:53:37.088Z,29.33
2023-05-20T17:57:49.663Z,33.40
2023-05-20T18:02:02.171Z,32.60
2023-05-20T18:06:14.833Z,37.17
2023-05-20T18:10:27.324Z,36.78
2023-05-20T18:14:39.732Z,28.80
2023-05-20T18:18:52.355Z,23.67
2023-05-20T18:23:04.863Z,23.05
2023-05-20T18:27:17.347Z,29.25
2023-05-20T18:31:30.145Z,24.73
2023-05-20T18:35:42.630Z,22.80
2023-05-20T18:39:57.489Z,22.15
2023-05-20T18:44:09.879Z,22.02
2023-05-20T18:48:26.697Z,20.35
2023-05-20T18:52:39.813Z,17.08
2023-05-20T18:56:52.878Z,23.42
2023-05-20T19:01:05.382Z,16.83
2023-05-20T19:05:18.016Z,17.98
2023-05-20T19:09:30.411Z,20.77
2023-05-20T19:13:42.927Z,18.63
2023-05-20T19:17:55.507Z,22.38
2023-05-20T19:22:09.270Z,20.88
2023-05-20T19:26:22.316Z,23.48
2023-05-20T19:30:34.823Z,18.25
2023-05-20T19:34:47.268Z,19.25
2023-05-20T19:39:00.512Z,24.60
2023-05-20T19:43:13.298Z,41.88
2023-05-20T19:47:25.703Z,37.90
2023-05-20T19:51:38.171Z,33.78
2023-05-20T19:55:50.957Z,39.45
2023-05-20T20:00:04.789Z,32.97
2023-05-20T20:04:25.104Z,34.63
2023-05-20T20:08:40.578Z,37.90
2023-05-20T20:12:52.937Z,32.45
2023-05-20T20:17:06.518Z,31.77
2023-05-20T20:21:19.037Z,26.15
2023-05-20T20:25:35.047Z,22.45
2023-05-20T20:29:47.762Z,22.92
2023-05-20T20:34:00.156Z,19.27
2023-05-20T20:38:12.584Z,16.95
2023-05-20T20:42:24.996Z,17.17
2023-05-20T20:46:37.964Z,15.55
2023-05-20T20:50:50.329Z,17.40
2023-05-20T20:55:02.741Z,18.23
2023-05-20T20:59:16.174Z,21.35
2023-05-20T21:03:28.619Z,18.33
2023-05-20T21:07:43.864Z,17.58
2023-05-20T21:11:57.441Z,19.83
2023-05-20T21:16:09.936Z,14.73
2023-05-20T21:20:22.410Z,14.32
2023-05-20T21:24:34.758Z,14.13
2023-05-20T21:28:47.126Z,11.80
2023-05-20T21:32:59.565Z,14.30
2023-05-20T21:37:11.962Z,11.27
2023-05-20T21:41:24.770Z,14.15
2023-05-20T21:45:37.545Z,12.25
2023-05-20T21:49:50.063Z,12.93
2023-05-20T21:54:02.586Z,11.55
2023-05-20T21:58:15.063Z,14.23
2023-05-20T22:02:27.550Z,15.32
2023-05-20T22:06:40.000Z,16.35
2023-05-20T22:10:52.391Z,11.18
2023-05-20T22:15:06.089Z,11.55
2023-05-20T22:19:18.506Z,15.40
2023-05-20T22:23:30.982Z,17.30
2023-05-20T22:27:43.814Z,20.95
2023-05-20T22:31:56.132Z,21.63
2023-05-20T22:36:09.928Z,21.58
2023-05-20T22:40:22.428Z,19.35
2023-05-20T22:44:34.946Z,14.65
2023-05-20T22:48:48.616Z,13.68
2023-05-20T22:53:01.345Z,24.08
2023-05-20T22:57:13.791Z,19.83
2023-05-20T23:01:26.257Z,14.70
2023-05-20T23:05:38.853Z,23.50
2023-05-20T23:09:51.686Z,13.50
2023-05-20T23:14:04.012Z,14.98
2023-05-20T23:18:16.440Z,13.85
2023-05-20T23:22:30.491Z,22.08
2023-05-20T23:26:43.683Z,15.32
2023-05-20T23:30:56.804Z,14.63
2023-05-20T23:35:11.837Z,13.65
2023-05-20T23:39:24.418Z,15.70
2023-05-20T23:43:36.754Z,11.05
2023-05-20T23:47:49.554Z,12.93
2023-05-20T23:52:02.052Z,13.90
2023-05-20T23:56:14.452Z,16.17
